Lumi/Jää/Keli Alkaa: 17-01-2021 18:00 Päättyy: 18-01-2021 14:00 Varoitus: Lumi/Jää/Keli Taso: Keltainen info button
suomi:
Liikennesää: Ajokeli muuttuu huonoksi illasta alkaen sään lauhtumisen ja kuuraisten teiden vuoksi.

svenska:
Trafikvädret: Väglaget blir dåligt från och med kvällen p.g.a. stigande temperatur och frostbelagda vägytor.

english:
Traffic weather warning: Bad road conditions are expected from the evening on because of rising temperature and hoarfrost-affected roads. 


Webkamera Lisätietoa Webcam


Varoitus: Lumi/Jää Lisätietoa

rain snow radar


Yksityisiä sääasemia lähellä:

Sääasema Juupajoki

Sääasema Orivesi

Sääasema Muurame

Sääasema Jyväskylä

Sääasema Vihtavuori


Löydät sääaseman tiedot myös:

Finland Weather Exchange

European Weather Network

Weather Underground

AWEKAS

Windy.com



Säätiedot lähimmiltä METAR asemilta

   
EFHA - Halli (Fin-Afb), Finland
Etäisyys asemalta: Kaakko 25 km
Päivitetty: 17.01.2021 19:20
Pilvistä  
Pilvistä  
   Tuuli: Länsilounas 1.5 m/s
Tuuli: Länsilounas 1.5 m/s
Lämpötila: -5°C
Tuulen hyytävyys: -8°C
Kastepiste: -6°C
Kosteus: 93%
Ilmanpaine: 1015 hPa
Pilvisyys: Pilvistä
Näkyvyys: Enemmän kuin 10 km
Pilvitiedot: Pilvistä 91 m
EFHA 171720Z AUTO 24003KT 9999 OVC003 M05/M06 Q1015
EFJY - Jyvaskyla (Mil/Civ), Finland
Etäisyys asemalta: Koillinen 75 km
Päivitetty: 17.01.2021 19:50
Vähäistä pilvisyyttä  
Vähäistä pilvisyyttä  
   Tuuli: Länsilounas 1.5 m/s
Tuuli: Länsilounas 1.5 m/s
Lämpötila: -5°C
Tuulen hyytävyys: -8°C
Kastepiste: -6°C
Kosteus: 93%
Ilmanpaine: 1014 hPa
Pilvisyys: Vähäistä pilvisyyttä
Näkyvyys: Enemmän kuin 10 km
Pilvitiedot: Vähäistä pilvisyyttä 1341 m
EFJY 171750Z AUTO 25003KT 9999 FEW044 M05/M06 Q1014
EFTP - Tampere/Pirkkala, Finland
Etäisyys asemalta: Lounas 81 km
Päivitetty: 17.01.2021 19:50
Melkein pilvistä  
Melkein pilvistä  
   Tuuli: Vaihtelee 1 m/s
Tuuli: Vaihtelee 1 m/s
Lämpötila: -8°C
Kastepiste: -9°C
Kosteus: 93%
Ilmanpaine: 1016 hPa
Pilvisyys: Melkein pilvistä
Näkyvyys: Enemmän kuin 10 km
Pilvitiedot: Puolipilvistä 91 m,
Melkein pilvistä 1433 m
EFTP 171750Z AUTO VRB02KT 9999 SCT003 BKN047 M08/M09 Q1016
EFSI - Seinajoki-Ilmajoki, Finland
Etäisyys asemalta: Luode 114 km
Päivitetty: 17.01.2021 19:50
Heikkoa jäätävää sadetta, Sade, Utua, Melkein pilvistä  
Heikkoa jäätävää sadetta, Sade, Utua, Melkein pilvistä  
   Tuuli: Etelä 1 m/s
Tuuli: Etelä 1 m/s
Lämpötila: -2°C
Kastepiste: -3°C
Kosteus: 93%
Ilmanpaine: 1014 hPa
Pilvisyys: Melkein pilvistä
Näkyvyys: 4 km
Pilvitiedot: Vähäistä pilvisyyttä 152 m,
Melkein pilvistä 975 m,
Melkein pilvistä 1158 m
EFSI 171750Z AUTO 19002KT 4400 -FZRA BR FEW005 BKN032 BKN038 M02/M03 Q1014
EFMI - Mikkeli, Finland
Etäisyys asemalta: Itäkaakko 147 km
Päivitetty: 15.12.2020 11:50
Ei ajankohtaista tietoa saatavilla
Pilvistä  
Pilvistä  
   Tuuli: Itäkaakko 1.5 m/s
Tuuli: Itäkaakko 1.5 m/s
Lämpötila: -3°C
Tuulen hyytävyys: -5°C
Kastepiste: -4°C
Kosteus: 93%
Ilmanpaine: 1018 hPa
Pilvisyys: Pilvistä
Näkyvyys: 6 km
Pilvitiedot: Pilvistä 152 m
EFMI 150950Z AUTO 12003KT 6000 OVC005 M03/M04 Q1018
EFPO - Pori (Mil/Civ), Finland
Etäisyys asemalta: Länsilounas 154 km
Päivitetty: 17.01.2021 19:50
Jäätävää, Tunnistamatonta sadetta, Pilvistä  
Jäätävää, Tunnistamatonta sadetta, Pilvistä  
   Tuuli: Eteläkaakko 3.1 m/s
Tuuli: Eteläkaakko 3.1 m/s
Lämpötila: -6°C
Tuulen hyytävyys: -11°C
Kastepiste: -7°C
Kosteus: 93%
Ilmanpaine: 1017 hPa
Pilvisyys: Pilvistä
Näkyvyys: 6 km
Pilvitiedot: Pilvistä 31 m
EFPO 171750Z AUTO 15006KT 6000 FZUP OVC001 M06/M07 Q1017
EFUT - Utti (Fin-Afb), Finland
Etäisyys asemalta: Kaakko 180 km
Päivitetty: 17.01.2021 19:50
Jäätävää, Tunnistamatonta sadetta, Pilvistä  
Jäätävää, Tunnistamatonta sadetta, Pilvistä  
   Tuuli: Luode 2.1 m/s
Tuuli: Luode 2.1 m/s
Lämpötila: -6°C
Tuulen hyytävyys: -9°C
Kastepiste: -7°C
Kosteus: 93%
Ilmanpaine: 1015 hPa
Pilvisyys: Pilvistä
Näkyvyys: Enemmän kuin 10 km
Pilvitiedot: Pilvistä 61 m
EFUT 171750Z AUTO 31004KT 9999 FZUP OVC002 M06/M07 Q1015
EFVA - Vaasa, Finland
Etäisyys asemalta: Luode 180 km
Päivitetty: 17.01.2021 19:50
Melkein pilvistä  
Melkein pilvistä  
   Tuuli: Etelä 3.1 m/s
Tuuli: Etelä 3.1 m/s
Lämpötila: -2°C
Tuulen hyytävyys: -6°C
Kastepiste: -3°C
Kosteus: 93%
Ilmanpaine: 1014 hPa
Pilvisyys: Melkein pilvistä
Näkyvyys: Enemmän kuin 10 km
Pilvitiedot: Melkein pilvistä 1250 m
EFVA 171750Z AUTO 17006KT 9999 BKN041 M02/M03 Q1014
EFHK - Helsinki/Vantaa, Finland
Etäisyys asemalta: Etelä 191 km
Päivitetty: 17.01.2021 19:50
Melkein pilvistä  
Melkein pilvistä  
   Tuuli: Tyyntä
Tuuli: Tyyntä
Lämpötila: -11°C
Kastepiste: -11°C
Kosteus: 100%
Ilmanpaine: 1017 hPa
Pilvisyys: Melkein pilvistä
Näkyvyys: Enemmän kuin 10 km
Pilvitiedot: Vähäistä pilvisyyttä 305 m,
Melkein pilvistä 914 m
EFHK 171750Z 00000KT 9999 FEW010 BKN030 M11/M11 Q1017 NOSIG

Alkuperäinen skripti  Saratoga-weather.org Sovitettu myös templatelle  Weerstation Leuven

Laitteet joita käytämme:

Sääasema
Davis VP2

Sääasemaohjelma
Cumulus

Sääaseman palvelin
HP ProBook 6460b

Palveluntarjoaja
Radicenter

Davis VP2

Cumulus

HP ProBook 6460b

Radicenter




Flag Counter Cumulus Top Weather Sites